Terminal Aerodrome Forecast
Issued by NWS

Home | Current Version | Previous Version | Text Only | Print | Product List | Glossary On
Versions: 1 2 3 4 5 6 7 8 9 10 11 12 13 14 15 16 17
000
FTUS43 KICT 260213 AAA
TAFSLN
TAF AMD
KSLN 260213Z 2602/2624 01014KT P6SM OVC012
     FM260800 07014KT P6SM OVC009
     FM261500 08015KT P6SM OVC015
     FM261900 07014KT P6SM BKN025=

USA.gov is the U.S. government's official web portal to all federal, state and local government web resources and services.